sensor_id;sensor_type;location;lat;lon;timestamp;P1;durP1;ratioP1;P2;durP2;ratioP2
15398;SDS011;7797;51.428;6.756;2022-07-10T00:00:43;3.17;;;1.60;;
15398;SDS011;7797;51.428;6.756;2022-07-10T00:03:10;4.13;;;1.60;;
15398;SDS011;7797;51.428;6.756;2022-07-10T00:05:37;2.50;;;1.33;;
15398;SDS011;7797;51.428;6.756;2022-07-10T00:08:04;4.03;;;1.10;;
15398;SDS011;7797;51.428;6.756;2022-07-10T00:10:31;2.70;;;1.40;;
15398;SDS011;7797;51.428;6.756;2022-07-10T00:12:59;2.20;;;1.13;;
15398;SDS011;7797;51.428;6.756;2022-07-10T00:15:26;3.97;;;1.60;;
15398;SDS011;7797;51.428;6.756;2022-07-10T00:17:53;4.10;;;1.40;;
15398;SDS011;7797;51.428;6.756;2022-07-10T00:20:19;2.07;;;1.37;;
15398;SDS011;7797;51.428;6.756;2022-07-10T00:22:46;3.17;;;1.40;;
15398;SDS011;7797;51.428;6.756;2022-07-10T00:25:13;1.87;;;1.37;;
15398;SDS011;7797;51.428;6.756;2022-07-10T00:27:40;3.33;;;1.40;;
15398;SDS011;7797;51.428;6.756;2022-07-10T00:30:08;4.70;;;1.73;;
15398;SDS011;7797;51.428;6.756;2022-07-10T00:32:36;7.63;;;1.57;;
15398;SDS011;7797;51.428;6.756;2022-07-10T00:35:04;2.57;;;1.30;;
15398;SDS011;7797;51.428;6.756;2022-07-10T00:37:31;2.53;;;1.37;;
15398;SDS011;7797;51.428;6.756;2022-07-10T00:39:58;4.20;;;1.33;;
15398;SDS011;7797;51.428;6.756;2022-07-10T00:42:26;4.50;;;1.53;;
15398;SDS011;7797;51.428;6.756;2022-07-10T00:44:53;3.50;;;1.60;;
15398;SDS011;7797;51.428;6.756;2022-07-10T00:47:20;4.40;;;1.70;;
15398;SDS011;7797;51.428;6.756;2022-07-10T00:49:47;4.10;;;1.30;;
15398;SDS011;7797;51.428;6.756;2022-07-10T00:52:17;4.27;;;1.50;;
15398;SDS011;7797;51.428;6.756;2022-07-10T00:54:45;3.93;;;1.80;;
15398;SDS011;7797;51.428;6.756;2022-07-10T00:57:13;5.30;;;1.87;;
15398;SDS011;7797;51.428;6.756;2022-07-10T00:59:46;3.37;;;1.40;;
15398;SDS011;7797;51.428;6.756;2022-07-10T01:02:14;3.97;;;1.77;;
15398;SDS011;7797;51.428;6.756;2022-07-10T01:04:42;5.37;;;1.53;;
15398;SDS011;7797;51.428;6.756;2022-07-10T01:07:09;4.07;;;1.90;;
15398;SDS011;7797;51.428;6.756;2022-07-10T01:09:35;4.97;;;1.93;;
15398;SDS011;7797;51.428;6.756;2022-07-10T01:12:03;4.73;;;1.90;;
15398;SDS011;7797;51.428;6.756;2022-07-10T01:14:30;3.07;;;1.93;;
15398;SDS011;7797;51.428;6.756;2022-07-10T01:16:57;4.47;;;1.60;;
15398;SDS011;7797;51.428;6.756;2022-07-10T01:19:25;3.50;;;1.63;;
15398;SDS011;7797;51.428;6.756;2022-07-10T01:21:51;6.03;;;1.70;;
15398;SDS011;7797;51.428;6.756;2022-07-10T01:24:18;3.17;;;1.60;;
15398;SDS011;7797;51.428;6.756;2022-07-10T01:26:45;4.27;;;1.70;;
15398;SDS011;7797;51.428;6.756;2022-07-10T01:29:11;3.70;;;1.47;;
15398;SDS011;7797;51.428;6.756;2022-07-10T01:31:38;2.00;;;1.50;;
15398;SDS011;7797;51.428;6.756;2022-07-10T01:34:08;2.83;;;1.67;;
15398;SDS011;7797;51.428;6.756;2022-07-10T01:36:38;6.50;;;2.30;;
15398;SDS011;7797;51.428;6.756;2022-07-10T01:39:05;6.30;;;1.80;;
15398;SDS011;7797;51.428;6.756;2022-07-10T01:41:32;6.03;;;1.83;;
15398;SDS011;7797;51.428;6.756;2022-07-10T01:43:59;6.13;;;1.80;;
15398;SDS011;7797;51.428;6.756;2022-07-10T01:46:26;3.33;;;1.83;;
15398;SDS011;7797;51.428;6.756;2022-07-10T01:48:53;4.70;;;1.70;;
15398;SDS011;7797;51.428;6.756;2022-07-10T01:51:20;4.67;;;1.90;;
15398;SDS011;7797;51.428;6.756;2022-07-10T01:53:47;3.40;;;1.60;;
15398;SDS011;7797;51.428;6.756;2022-07-10T01:56:14;1.87;;;1.70;;
15398;SDS011;7797;51.428;6.756;2022-07-10T01:58:41;5.20;;;1.83;;
15398;SDS011;7797;51.428;6.756;2022-07-10T02:01:08;3.63;;;1.60;;
15398;SDS011;7797;51.428;6.756;2022-07-10T02:03:35;2.73;;;1.50;;
15398;SDS011;7797;51.428;6.756;2022-07-10T02:06:21;5.33;;;1.50;;
15398;SDS011;7797;51.428;6.756;2022-07-10T02:08:47;4.20;;;1.30;;
15398;SDS011;7797;51.428;6.756;2022-07-10T02:11:14;5.40;;;1.63;;
15398;SDS011;7797;51.428;6.756;2022-07-10T02:13:41;2.33;;;1.30;;
15398;SDS011;7797;51.428;6.756;2022-07-10T02:16:08;3.80;;;1.70;;
15398;SDS011;7797;51.428;6.756;2022-07-10T02:18:34;4.03;;;1.80;;
15398;SDS011;7797;51.428;6.756;2022-07-10T02:21:02;5.63;;;1.60;;
15398;SDS011;7797;51.428;6.756;2022-07-10T02:23:29;4.73;;;1.83;;
15398;SDS011;7797;51.428;6.756;2022-07-10T02:25:55;3.73;;;1.50;;
15398;SDS011;7797;51.428;6.756;2022-07-10T02:28:22;3.43;;;1.67;;
15398;SDS011;7797;51.428;6.756;2022-07-10T02:30:49;4.60;;;1.40;;
15398;SDS011;7797;51.428;6.756;2022-07-10T02:33:15;3.80;;;1.57;;
15398;SDS011;7797;51.428;6.756;2022-07-10T02:35:42;2.53;;;1.60;;
15398;SDS011;7797;51.428;6.756;2022-07-10T02:38:09;2.90;;;1.63;;
15398;SDS011;7797;51.428;6.756;2022-07-10T02:40:35;3.60;;;1.80;;
15398;SDS011;7797;51.428;6.756;2022-07-10T02:43:02;5.00;;;1.77;;
15398;SDS011;7797;51.428;6.756;2022-07-10T02:45:29;4.23;;;1.87;;
15398;SDS011;7797;51.428;6.756;2022-07-10T02:47:56;5.90;;;1.83;;
15398;SDS011;7797;51.428;6.756;2022-07-10T02:50:22;5.57;;;1.60;;
15398;SDS011;7797;51.428;6.756;2022-07-10T02:52:49;4.33;;;1.97;;
15398;SDS011;7797;51.428;6.756;2022-07-10T02:55:16;4.60;;;1.67;;
15398;SDS011;7797;51.428;6.756;2022-07-10T02:57:43;3.07;;;1.80;;
15398;SDS011;7797;51.428;6.756;2022-07-10T03:00:10;2.40;;;1.70;;
15398;SDS011;7797;51.428;6.756;2022-07-10T03:02:37;5.47;;;1.57;;
15398;SDS011;7797;51.428;6.756;2022-07-10T03:05:04;3.20;;;1.47;;
15398;SDS011;7797;51.428;6.756;2022-07-10T03:07:31;3.73;;;1.70;;
15398;SDS011;7797;51.428;6.756;2022-07-10T03:09:58;2.90;;;1.73;;
15398;SDS011;7797;51.428;6.756;2022-07-10T03:12:25;2.50;;;1.80;;
15398;SDS011;7797;51.428;6.756;2022-07-10T03:14:51;4.47;;;1.90;;
15398;SDS011;7797;51.428;6.756;2022-07-10T03:17:19;4.73;;;1.90;;
15398;SDS011;7797;51.428;6.756;2022-07-10T03:19:45;2.97;;;1.83;;
15398;SDS011;7797;51.428;6.756;2022-07-10T03:22:12;5.03;;;1.77;;
15398;SDS011;7797;51.428;6.756;2022-07-10T03:24:38;2.37;;;1.87;;
15398;SDS011;7797;51.428;6.756;2022-07-10T03:27:05;3.67;;;1.73;;
15398;SDS011;7797;51.428;6.756;2022-07-10T03:29:32;3.90;;;1.80;;
15398;SDS011;7797;51.428;6.756;2022-07-10T03:31:59;5.60;;;2.00;;
15398;SDS011;7797;51.428;6.756;2022-07-10T03:34:25;5.67;;;2.00;;
15398;SDS011;7797;51.428;6.756;2022-07-10T03:36:52;4.50;;;1.73;;
15398;SDS011;7797;51.428;6.756;2022-07-10T03:39:19;5.23;;;1.80;;
15398;SDS011;7797;51.428;6.756;2022-07-10T03:41:45;3.47;;;1.90;;
15398;SDS011;7797;51.428;6.756;2022-07-10T03:44:13;3.90;;;1.90;;
15398;SDS011;7797;51.428;6.756;2022-07-10T03:46:40;5.90;;;1.83;;
15398;SDS011;7797;51.428;6.756;2022-07-10T03:49:06;6.20;;;2.00;;
15398;SDS011;7797;51.428;6.756;2022-07-10T03:51:33;3.37;;;1.97;;
15398;SDS011;7797;51.428;6.756;2022-07-10T03:54:00;4.60;;;2.00;;
15398;SDS011;7797;51.428;6.756;2022-07-10T03:56:26;3.63;;;2.30;;
15398;SDS011;7797;51.428;6.756;2022-07-10T03:59:12;5.43;;;2.20;;
15398;SDS011;7797;51.428;6.756;2022-07-10T04:01:38;3.43;;;2.17;;
15398;SDS011;7797;51.428;6.756;2022-07-10T04:04:05;4.90;;;2.00;;
15398;SDS011;7797;51.428;6.756;2022-07-10T04:06:32;5.77;;;2.20;;
15398;SDS011;7797;51.428;6.756;2022-07-10T04:08:58;3.33;;;1.77;;
15398;SDS011;7797;51.428;6.756;2022-07-10T04:11:25;4.70;;;2.20;;
15398;SDS011;7797;51.428;6.756;2022-07-10T04:13:52;2.97;;;1.90;;
15398;SDS011;7797;51.428;6.756;2022-07-10T04:16:18;3.03;;;1.90;;
15398;SDS011;7797;51.428;6.756;2022-07-10T04:18:45;4.37;;;2.30;;
15398;SDS011;7797;51.428;6.756;2022-07-10T04:21:12;6.47;;;2.13;;
15398;SDS011;7797;51.428;6.756;2022-07-10T04:23:39;4.10;;;2.10;;
15398;SDS011;7797;51.428;6.756;2022-07-10T04:26:05;4.53;;;2.30;;
15398;SDS011;7797;51.428;6.756;2022-07-10T04:28:32;5.00;;;2.27;;
15398;SDS011;7797;51.428;6.756;2022-07-10T04:30:59;3.03;;;2.30;;
15398;SDS011;7797;51.428;6.756;2022-07-10T04:33:26;7.13;;;2.10;;
15398;SDS011;7797;51.428;6.756;2022-07-10T04:35:52;2.50;;;2.10;;
15398;SDS011;7797;51.428;6.756;2022-07-10T04:38:19;2.93;;;1.97;;
15398;SDS011;7797;51.428;6.756;2022-07-10T04:40:46;4.37;;;2.30;;
15398;SDS011;7797;51.428;6.756;2022-07-10T04:43:12;2.97;;;2.10;;
15398;SDS011;7797;51.428;6.756;2022-07-10T04:45:39;4.80;;;2.20;;
15398;SDS011;7797;51.428;6.756;2022-07-10T04:48:06;4.40;;;1.80;;
15398;SDS011;7797;51.428;6.756;2022-07-10T04:50:33;4.50;;;2.03;;
15398;SDS011;7797;51.428;6.756;2022-07-10T04:52:59;3.20;;;1.80;;
15398;SDS011;7797;51.428;6.756;2022-07-10T04:55:26;6.80;;;2.37;;
15398;SDS011;7797;51.428;6.756;2022-07-10T04:57:53;6.13;;;2.40;;
15398;SDS011;7797;51.428;6.756;2022-07-10T05:00:20;3.97;;;2.50;;
15398;SDS011;7797;51.428;6.756;2022-07-10T05:02:47;2.67;;;2.10;;
15398;SDS011;7797;51.428;6.756;2022-07-10T05:05:14;4.07;;;2.10;;
15398;SDS011;7797;51.428;6.756;2022-07-10T05:07:40;2.37;;;2.10;;
15398;SDS011;7797;51.428;6.756;2022-07-10T05:10:07;4.77;;;2.30;;
15398;SDS011;7797;51.428;6.756;2022-07-10T05:12:34;3.87;;;2.07;;
15398;SDS011;7797;51.428;6.756;2022-07-10T05:15:01;3.77;;;2.17;;
15398;SDS011;7797;51.428;6.756;2022-07-10T05:17:28;2.97;;;2.40;;
15398;SDS011;7797;51.428;6.756;2022-07-10T05:19:55;4.60;;;2.50;;
15398;SDS011;7797;51.428;6.756;2022-07-10T05:22:23;7.03;;;2.63;;
15398;SDS011;7797;51.428;6.756;2022-07-10T05:24:50;2.60;;;2.20;;
15398;SDS011;7797;51.428;6.756;2022-07-10T05:27:17;3.33;;;2.17;;
15398;SDS011;7797;51.428;6.756;2022-07-10T05:29:46;6.53;;;2.50;;
15398;SDS011;7797;51.428;6.756;2022-07-10T05:32:13;3.47;;;2.20;;
15398;SDS011;7797;51.428;6.756;2022-07-10T05:34:41;3.33;;;2.17;;
15398;SDS011;7797;51.428;6.756;2022-07-10T05:37:07;6.37;;;2.10;;
15398;SDS011;7797;51.428;6.756;2022-07-10T05:39:34;4.23;;;2.13;;
15398;SDS011;7797;51.428;6.756;2022-07-10T05:42:01;5.03;;;2.00;;
15398;SDS011;7797;51.428;6.756;2022-07-10T05:44:28;2.50;;;1.83;;
15398;SDS011;7797;51.428;6.756;2022-07-10T05:46:54;6.00;;;1.97;;
15398;SDS011;7797;51.428;6.756;2022-07-10T05:49:21;7.17;;;2.17;;
15398;SDS011;7797;51.428;6.756;2022-07-10T05:51:48;4.83;;;2.10;;
15398;SDS011;7797;51.428;6.756;2022-07-10T05:54:14;3.13;;;1.90;;
15398;SDS011;7797;51.428;6.756;2022-07-10T05:56:41;3.57;;;1.90;;
15398;SDS011;7797;51.428;6.756;2022-07-10T05:59:08;4.30;;;2.07;;
15398;SDS011;7797;51.428;6.756;2022-07-10T06:01:34;4.53;;;2.17;;
15398;SDS011;7797;51.428;6.756;2022-07-10T06:04:02;4.03;;;1.90;;
15398;SDS011;7797;51.428;6.756;2022-07-10T06:06:29;5.00;;;2.00;;
15398;SDS011;7797;51.428;6.756;2022-07-10T06:08:55;3.67;;;1.87;;
15398;SDS011;7797;51.428;6.756;2022-07-10T06:11:22;3.70;;;2.77;;
15398;SDS011;7797;51.428;6.756;2022-07-10T06:13:49;5.27;;;1.90;;
15398;SDS011;7797;51.428;6.756;2022-07-10T06:16:15;3.80;;;1.97;;
15398;SDS011;7797;51.428;6.756;2022-07-10T06:18:42;4.90;;;2.17;;
15398;SDS011;7797;51.428;6.756;2022-07-10T06:21:10;5.00;;;2.03;;
15398;SDS011;7797;51.428;6.756;2022-07-10T06:23:37;6.27;;;2.53;;
15398;SDS011;7797;51.428;6.756;2022-07-10T06:26:03;3.47;;;1.73;;
15398;SDS011;7797;51.428;6.756;2022-07-10T06:28:30;5.50;;;2.30;;
15398;SDS011;7797;51.428;6.756;2022-07-10T06:30:57;3.93;;;2.10;;
15398;SDS011;7797;51.428;6.756;2022-07-10T06:33:26;4.23;;;2.03;;
15398;SDS011;7797;51.428;6.756;2022-07-10T06:35:52;4.40;;;2.20;;
15398;SDS011;7797;51.428;6.756;2022-07-10T06:38:19;5.37;;;2.17;;
15398;SDS011;7797;51.428;6.756;2022-07-10T06:40:46;5.77;;;1.50;;
15398;SDS011;7797;51.428;6.756;2022-07-10T06:43:13;4.63;;;1.90;;
15398;SDS011;7797;51.428;6.756;2022-07-10T06:45:40;4.53;;;2.00;;
15398;SDS011;7797;51.428;6.756;2022-07-10T06:48:07;3.57;;;1.70;;
15398;SDS011;7797;51.428;6.756;2022-07-10T06:50:34;3.73;;;1.83;;
15398;SDS011;7797;51.428;6.756;2022-07-10T06:53:02;5.83;;;1.80;;
15398;SDS011;7797;51.428;6.756;2022-07-10T06:55:29;5.17;;;2.03;;
15398;SDS011;7797;51.428;6.756;2022-07-10T06:57:56;2.53;;;1.50;;
15398;SDS011;7797;51.428;6.756;2022-07-10T07:00:23;5.73;;;1.90;;
15398;SDS011;7797;51.428;6.756;2022-07-10T07:02:50;5.50;;;1.73;;
15398;SDS011;7797;51.428;6.756;2022-07-10T07:05:17;3.57;;;1.93;;
15398;SDS011;7797;51.428;6.756;2022-07-10T07:07:44;5.03;;;1.90;;
15398;SDS011;7797;51.428;6.756;2022-07-10T07:10:11;4.97;;;1.90;;
15398;SDS011;7797;51.428;6.756;2022-07-10T07:12:38;3.17;;;1.80;;
15398;SDS011;7797;51.428;6.756;2022-07-10T07:15:05;4.47;;;2.00;;
15398;SDS011;7797;51.428;6.756;2022-07-10T07:17:32;8.07;;;2.03;;
15398;SDS011;7797;51.428;6.756;2022-07-10T07:20:25;4.17;;;1.73;;
15398;SDS011;7797;51.428;6.756;2022-07-10T07:23:11;6.40;;;1.77;;
15398;SDS011;7797;51.428;6.756;2022-07-10T07:25:38;2.63;;;1.60;;
15398;SDS011;7797;51.428;6.756;2022-07-10T07:28:08;7.87;;;2.20;;
15398;SDS011;7797;51.428;6.756;2022-07-10T07:30:36;5.70;;;1.90;;
15398;SDS011;7797;51.428;6.756;2022-07-10T07:33:03;6.97;;;2.03;;
15398;SDS011;7797;51.428;6.756;2022-07-10T07:35:30;5.13;;;1.87;;
15398;SDS011;7797;51.428;6.756;2022-07-10T07:37:57;3.67;;;1.77;;
15398;SDS011;7797;51.428;6.756;2022-07-10T07:40:23;3.60;;;1.90;;
15398;SDS011;7797;51.428;6.756;2022-07-10T07:42:51;6.83;;;2.00;;
15398;SDS011;7797;51.428;6.756;2022-07-10T07:45:19;8.50;;;1.70;;
15398;SDS011;7797;51.428;6.756;2022-07-10T07:47:54;5.60;;;2.13;;
15398;SDS011;7797;51.428;6.756;2022-07-10T07:50:26;4.30;;;1.90;;
15398;SDS011;7797;51.428;6.756;2022-07-10T07:52:55;3.97;;;1.60;;
15398;SDS011;7797;51.428;6.756;2022-07-10T07:55:22;4.30;;;1.70;;
15398;SDS011;7797;51.428;6.756;2022-07-10T07:57:53;5.67;;;2.10;;
15398;SDS011;7797;51.428;6.756;2022-07-10T08:00:22;5.30;;;1.90;;
15398;SDS011;7797;51.428;6.756;2022-07-10T08:02:50;5.00;;;2.10;;
15398;SDS011;7797;51.428;6.756;2022-07-10T08:05:18;5.87;;;2.00;;
15398;SDS011;7797;51.428;6.756;2022-07-10T08:07:46;4.93;;;2.30;;
15398;SDS011;7797;51.428;6.756;2022-07-10T08:10:17;3.80;;;2.00;;
15398;SDS011;7797;51.428;6.756;2022-07-10T08:12:46;5.37;;;2.10;;
15398;SDS011;7797;51.428;6.756;2022-07-10T08:15:13;4.00;;;2.00;;
15398;SDS011;7797;51.428;6.756;2022-07-10T08:17:41;5.07;;;2.20;;
15398;SDS011;7797;51.428;6.756;2022-07-10T08:20:10;2.83;;;1.90;;
15398;SDS011;7797;51.428;6.756;2022-07-10T08:22:38;5.90;;;2.33;;
15398;SDS011;7797;51.428;6.756;2022-07-10T08:25:06;5.40;;;2.23;;
15398;SDS011;7797;51.428;6.756;2022-07-10T08:27:33;5.30;;;2.10;;
15398;SDS011;7797;51.428;6.756;2022-07-10T08:30:00;7.20;;;2.57;;
15398;SDS011;7797;51.428;6.756;2022-07-10T08:32:27;4.57;;;2.57;;
15398;SDS011;7797;51.428;6.756;2022-07-10T08:34:54;4.70;;;2.40;;
15398;SDS011;7797;51.428;6.756;2022-07-10T08:37:21;4.33;;;2.30;;
15398;SDS011;7797;51.428;6.756;2022-07-10T08:39:48;3.23;;;2.57;;
15398;SDS011;7797;51.428;6.756;2022-07-10T08:42:15;7.80;;;2.60;;
15398;SDS011;7797;51.428;6.756;2022-07-10T08:44:42;5.67;;;2.37;;
15398;SDS011;7797;51.428;6.756;2022-07-10T08:47:09;8.47;;;2.80;;
15398;SDS011;7797;51.428;6.756;2022-07-10T08:49:38;4.87;;;2.20;;
15398;SDS011;7797;51.428;6.756;2022-07-10T08:52:16;5.17;;;2.70;;
15398;SDS011;7797;51.428;6.756;2022-07-10T08:54:58;4.57;;;2.83;;
15398;SDS011;7797;51.428;6.756;2022-07-10T08:57:28;4.93;;;2.70;;
15398;SDS011;7797;51.428;6.756;2022-07-10T08:59:56;3.80;;;2.67;;
15398;SDS011;7797;51.428;6.756;2022-07-10T09:02:22;5.23;;;2.80;;
15398;SDS011;7797;51.428;6.756;2022-07-10T09:04:49;5.27;;;2.77;;
15398;SDS011;7797;51.428;6.756;2022-07-10T09:07:16;7.03;;;3.50;;
15398;SDS011;7797;51.428;6.756;2022-07-10T09:09:56;5.37;;;3.10;;
15398;SDS011;7797;51.428;6.756;2022-07-10T09:12:24;4.40;;;2.70;;
15398;SDS011;7797;51.428;6.756;2022-07-10T09:14:51;4.03;;;2.73;;
15398;SDS011;7797;51.428;6.756;2022-07-10T09:17:18;3.90;;;2.47;;
15398;SDS011;7797;51.428;6.756;2022-07-10T09:19:45;5.67;;;2.90;;
15398;SDS011;7797;51.428;6.756;2022-07-10T09:22:12;5.40;;;2.73;;
15398;SDS011;7797;51.428;6.756;2022-07-10T09:24:45;5.73;;;2.83;;
15398;SDS011;7797;51.428;6.756;2022-07-10T09:27:15;3.90;;;2.63;;
15398;SDS011;7797;51.428;6.756;2022-07-10T09:29:49;4.67;;;2.70;;
15398;SDS011;7797;51.428;6.756;2022-07-10T09:32:23;4.33;;;2.60;;
15398;SDS011;7797;51.428;6.756;2022-07-10T09:34:50;6.43;;;2.90;;
15398;SDS011;7797;51.428;6.756;2022-07-10T09:37:40;5.50;;;3.20;;
15398;SDS011;7797;51.428;6.756;2022-07-10T09:40:07;6.03;;;2.70;;
15398;SDS011;7797;51.428;6.756;2022-07-10T09:42:36;6.20;;;2.80;;
15398;SDS011;7797;51.428;6.756;2022-07-10T09:47:39;4.33;;;2.60;;
15398;SDS011;7797;51.428;6.756;2022-07-10T09:50:25;3.70;;;2.50;;
15398;SDS011;7797;51.428;6.756;2022-07-10T09:52:59;2.80;;;2.60;;
15398;SDS011;7797;51.428;6.756;2022-07-10T09:55:26;3.97;;;2.53;;
15398;SDS011;7797;51.428;6.756;2022-07-10T09:58:00;2.67;;;2.30;;
15398;SDS011;7797;51.428;6.756;2022-07-10T10:00:31;2.40;;;2.20;;
15398;SDS011;7797;51.428;6.756;2022-07-10T10:03:00;2.80;;;2.10;;
15398;SDS011;7797;51.428;6.756;2022-07-10T10:05:38;2.23;;;2.03;;
15398;SDS011;7797;51.428;6.756;2022-07-10T10:10:49;1.47;;;1.47;;
15398;SDS011;7797;51.428;6.756;2022-07-10T10:13:18;2.13;;;1.50;;
15398;SDS011;7797;51.428;6.756;2022-07-10T10:15:50;2.33;;;1.03;;
15398;SDS011;7797;51.428;6.756;2022-07-10T10:18:18;1.50;;;1.40;;
15398;SDS011;7797;51.428;6.756;2022-07-10T10:20:46;1.70;;;1.60;;
15398;SDS011;7797;51.428;6.756;2022-07-10T10:23:23;1.50;;;1.50;;
15398;SDS011;7797;51.428;6.756;2022-07-10T10:25:52;1.50;;;1.40;;
15398;SDS011;7797;51.428;6.756;2022-07-10T10:28:20;2.13;;;1.70;;
15398;SDS011;7797;51.428;6.756;2022-07-10T10:30:51;2.10;;;1.63;;
15398;SDS011;7797;51.428;6.756;2022-07-10T10:36:05;2.57;;;1.90;;
15398;SDS011;7797;51.428;6.756;2022-07-10T10:41:24;2.60;;;2.40;;
15398;SDS011;7797;51.428;6.756;2022-07-10T10:46:36;2.30;;;2.20;;
15398;SDS011;7797;51.428;6.756;2022-07-10T10:52:16;2.43;;;2.20;;
15398;SDS011;7797;51.428;6.756;2022-07-10T10:57:24;1.90;;;1.80;;
15398;SDS011;7797;51.428;6.756;2022-07-10T11:00:09;2.40;;;2.20;;
15398;SDS011;7797;51.428;6.756;2022-07-10T11:02:38;2.97;;;2.10;;
15398;SDS011;7797;51.428;6.756;2022-07-10T11:07:56;2.27;;;2.00;;
15398;SDS011;7797;51.428;6.756;2022-07-10T11:10:41;3.70;;;2.37;;
15398;SDS011;7797;51.428;6.756;2022-07-10T11:15:45;2.43;;;1.90;;
15398;SDS011;7797;51.428;6.756;2022-07-10T11:18:18;2.90;;;2.10;;
15398;SDS011;7797;51.428;6.756;2022-07-10T11:20:49;2.93;;;2.30;;
15398;SDS011;7797;51.428;6.756;2022-07-10T11:25:54;3.57;;;2.30;;
15398;SDS011;7797;51.428;6.756;2022-07-10T11:31:04;4.47;;;2.30;;
15398;SDS011;7797;51.428;6.756;2022-07-10T11:33:38;2.50;;;2.10;;
15398;SDS011;7797;51.428;6.756;2022-07-10T11:36:10;4.87;;;1.90;;
15398;SDS011;7797;51.428;6.756;2022-07-10T11:38:40;3.23;;;2.03;;
15398;SDS011;7797;51.428;6.756;2022-07-10T11:41:18;3.93;;;2.00;;
15398;SDS011;7797;51.428;6.756;2022-07-10T11:43:57;2.23;;;1.80;;
15398;SDS011;7797;51.428;6.756;2022-07-10T11:46:26;2.70;;;2.00;;
15398;SDS011;7797;51.428;6.756;2022-07-10T11:48:54;2.13;;;2.00;;
15398;SDS011;7797;51.428;6.756;2022-07-10T11:53:58;3.77;;;2.00;;
15398;SDS011;7797;51.428;6.756;2022-07-10T11:56:32;3.63;;;1.93;;
15398;SDS011;7797;51.428;6.756;2022-07-10T11:59:02;3.50;;;2.30;;
15398;SDS011;7797;51.428;6.756;2022-07-10T12:01:30;3.47;;;2.30;;
15398;SDS011;7797;51.428;6.756;2022-07-10T12:04:06;4.00;;;1.90;;
15398;SDS011;7797;51.428;6.756;2022-07-10T12:06:36;5.80;;;2.33;;
15398;SDS011;7797;51.428;6.756;2022-07-10T12:09:05;4.00;;;2.30;;
15398;SDS011;7797;51.428;6.756;2022-07-10T12:11:34;3.40;;;2.53;;
15398;SDS011;7797;51.428;6.756;2022-07-10T12:14:13;3.43;;;2.30;;
15398;SDS011;7797;51.428;6.756;2022-07-10T12:16:41;6.70;;;2.97;;
15398;SDS011;7797;51.428;6.756;2022-07-10T12:19:10;6.03;;;2.40;;
15398;SDS011;7797;51.428;6.756;2022-07-10T12:21:44;5.37;;;2.80;;
15398;SDS011;7797;51.428;6.756;2022-07-10T12:24:13;5.63;;;3.00;;
15398;SDS011;7797;51.428;6.756;2022-07-10T12:26:42;4.27;;;3.20;;
15398;SDS011;7797;51.428;6.756;2022-07-10T12:29:20;6.03;;;2.97;;
15398;SDS011;7797;51.428;6.756;2022-07-10T12:31:48;4.77;;;3.03;;
15398;SDS011;7797;51.428;6.756;2022-07-10T12:34:16;8.13;;;3.23;;
15398;SDS011;7797;51.428;6.756;2022-07-10T12:36:47;4.47;;;3.20;;
15398;SDS011;7797;51.428;6.756;2022-07-10T12:39:23;4.13;;;2.80;;
15398;SDS011;7797;51.428;6.756;2022-07-10T12:44:35;4.07;;;3.30;;
15398;SDS011;7797;51.428;6.756;2022-07-10T12:47:18;3.77;;;3.20;;
15398;SDS011;7797;51.428;6.756;2022-07-10T12:49:57;3.23;;;2.33;;
15398;SDS011;7797;51.428;6.756;2022-07-10T12:55:16;4.60;;;2.40;;
15398;SDS011;7797;51.428;6.756;2022-07-10T12:57:46;4.10;;;2.47;;
15398;SDS011;7797;51.428;6.756;2022-07-10T13:00:21;3.07;;;2.60;;
15398;SDS011;7797;51.428;6.756;2022-07-10T13:02:48;3.73;;;2.40;;
15398;SDS011;7797;51.428;6.756;2022-07-10T13:05:27;2.37;;;2.07;;
15398;SDS011;7797;51.428;6.756;2022-07-10T13:10:47;4.13;;;2.30;;
15398;SDS011;7797;51.428;6.756;2022-07-10T13:13:18;3.63;;;2.10;;
15398;SDS011;7797;51.428;6.756;2022-07-10T13:15:45;1.90;;;1.80;;
15398;SDS011;7797;51.428;6.756;2022-07-10T13:18:20;2.30;;;2.00;;
15398;SDS011;7797;51.428;6.756;2022-07-10T13:20:52;2.17;;;1.97;;
15398;SDS011;7797;51.428;6.756;2022-07-10T13:23:26;4.10;;;2.00;;
15398;SDS011;7797;51.428;6.756;2022-07-10T13:25:54;2.83;;;1.80;;
15398;SDS011;7797;51.428;6.756;2022-07-10T13:28:22;2.63;;;1.83;;
15398;SDS011;7797;51.428;6.756;2022-07-10T13:30:49;2.43;;;1.80;;
15398;SDS011;7797;51.428;6.756;2022-07-10T13:33:15;1.83;;;1.73;;
15398;SDS011;7797;51.428;6.756;2022-07-10T13:35:42;1.80;;;1.70;;
15398;SDS011;7797;51.428;6.756;2022-07-10T13:38:09;2.33;;;2.13;;
15398;SDS011;7797;51.428;6.756;2022-07-10T13:40:42;2.70;;;2.50;;
15398;SDS011;7797;51.428;6.756;2022-07-10T13:43:10;2.20;;;2.00;;
15398;SDS011;7797;51.428;6.756;2022-07-10T13:45:39;2.43;;;2.20;;
15398;SDS011;7797;51.428;6.756;2022-07-10T13:48:11;3.27;;;2.07;;
15398;SDS011;7797;51.428;6.756;2022-07-10T13:50:38;3.07;;;1.90;;
15398;SDS011;7797;51.428;6.756;2022-07-10T13:53:05;3.17;;;1.90;;
15398;SDS011;7797;51.428;6.756;2022-07-10T13:55:35;2.83;;;1.50;;
15398;SDS011;7797;51.428;6.756;2022-07-10T13:58:02;3.93;;;3.53;;
15398;SDS011;7797;51.428;6.756;2022-07-10T14:00:29;2.47;;;2.20;;
15398;SDS011;7797;51.428;6.756;2022-07-10T14:02:56;3.90;;;1.90;;
15398;SDS011;7797;51.428;6.756;2022-07-10T14:05:24;3.37;;;1.80;;
15398;SDS011;7797;51.428;6.756;2022-07-10T14:07:50;1.80;;;1.47;;
15398;SDS011;7797;51.428;6.756;2022-07-10T14:10:17;1.77;;;1.47;;
15398;SDS011;7797;51.428;6.756;2022-07-10T14:12:44;1.50;;;1.40;;
15398;SDS011;7797;51.428;6.756;2022-07-10T14:15:11;2.63;;;1.67;;
15398;SDS011;7797;51.428;6.756;2022-07-10T14:17:37;2.53;;;1.70;;
15398;SDS011;7797;51.428;6.756;2022-07-10T14:20:04;1.60;;;1.50;;
15398;SDS011;7797;51.428;6.756;2022-07-10T14:22:31;2.13;;;1.50;;
15398;SDS011;7797;51.428;6.756;2022-07-10T14:24:58;3.00;;;1.70;;
15398;SDS011;7797;51.428;6.756;2022-07-10T14:27:26;1.90;;;1.67;;
15398;SDS011;7797;51.428;6.756;2022-07-10T14:29:55;1.60;;;1.50;;
15398;SDS011;7797;51.428;6.756;2022-07-10T14:32:22;3.27;;;1.80;;
15398;SDS011;7797;51.428;6.756;2022-07-10T14:34:48;1.57;;;1.47;;
15398;SDS011;7797;51.428;6.756;2022-07-10T14:37:16;1.70;;;1.60;;
15398;SDS011;7797;51.428;6.756;2022-07-10T14:39:42;2.87;;;1.80;;
15398;SDS011;7797;51.428;6.756;2022-07-10T14:42:09;1.60;;;1.50;;
15398;SDS011;7797;51.428;6.756;2022-07-10T14:44:36;3.57;;;1.60;;
15398;SDS011;7797;51.428;6.756;2022-07-10T14:47:03;1.80;;;1.70;;
15398;SDS011;7797;51.428;6.756;2022-07-10T14:49:30;1.80;;;1.70;;
15398;SDS011;7797;51.428;6.756;2022-07-10T14:51:59;2.57;;;1.57;;
15398;SDS011;7797;51.428;6.756;2022-07-10T14:54:29;3.40;;;1.70;;
15398;SDS011;7797;51.428;6.756;2022-07-10T14:56:55;2.67;;;1.57;;
15398;SDS011;7797;51.428;6.756;2022-07-10T14:59:28;3.77;;;1.40;;
15398;SDS011;7797;51.428;6.756;2022-07-10T15:01:55;1.53;;;1.33;;
15398;SDS011;7797;51.428;6.756;2022-07-10T15:04:22;1.80;;;1.70;;
15398;SDS011;7797;51.428;6.756;2022-07-10T15:06:50;1.53;;;1.43;;
15398;SDS011;7797;51.428;6.756;2022-07-10T15:09:17;3.03;;;1.60;;
15398;SDS011;7797;51.428;6.756;2022-07-10T15:11:44;3.50;;;1.70;;
15398;SDS011;7797;51.428;6.756;2022-07-10T15:14:11;2.80;;;1.90;;
15398;SDS011;7797;51.428;6.756;2022-07-10T15:16:38;3.20;;;1.70;;
15398;SDS011;7797;51.428;6.756;2022-07-10T15:19:05;1.60;;;1.50;;
15398;SDS011;7797;51.428;6.756;2022-07-10T15:21:32;3.13;;;1.80;;
15398;SDS011;7797;51.428;6.756;2022-07-10T15:23:59;2.30;;;1.83;;
15398;SDS011;7797;51.428;6.756;2022-07-10T15:26:26;3.10;;;2.03;;
15398;SDS011;7797;51.428;6.756;2022-07-10T15:28:53;3.43;;;1.80;;
15398;SDS011;7797;51.428;6.756;2022-07-10T15:31:23;3.90;;;2.03;;
15398;SDS011;7797;51.428;6.756;2022-07-10T15:33:50;4.70;;;1.80;;
15398;SDS011;7797;51.428;6.756;2022-07-10T15:36:17;1.70;;;1.60;;
15398;SDS011;7797;51.428;6.756;2022-07-10T15:38:45;3.77;;;2.00;;
15398;SDS011;7797;51.428;6.756;2022-07-10T15:41:12;1.70;;;1.60;;
15398;SDS011;7797;51.428;6.756;2022-07-10T15:43:39;3.63;;;1.70;;
15398;SDS011;7797;51.428;6.756;2022-07-10T15:46:06;2.30;;;1.77;;
15398;SDS011;7797;51.428;6.756;2022-07-10T15:48:33;2.90;;;1.63;;